ADDS METAR Data INFO
IDs: Format: Raw Decoded Include TAF

Data at: 0109 UTC 21 Oct 2017

KIGX 210056Z AUTO 00000KT 10SM CLR 15/10 A3023 RMK AO2 SLP233 T01500100
KIGX 202356Z AUTO 00000KT 10SM CLR 17/09 A3023 RMK AO2 SLP233 T01670089 10267 20161 53009
KIGX 202256Z AUTO 00000KT 10SM CLR 19/10 A3021 RMK AO2 SLP228 T01890100
KIGX 202156Z AUTO 00000KT 10SM CLR 24/08 A3019 RMK AO2 SLP221 T02390083
KIGX 202056Z AUTO VRB04KT 10SM CLR 26/07 A3020 RMK AO2 SLP222 T02610072 56010
KIGX 201956Z AUTO VRB05KT 10SM CLR 26/07 A3020 RMK AO2 SLP222 T02610072
KIGX 201856Z AUTO 10SM CLR 26/08 A3021 RMK AO2 SLP225 T02560078
KIGX 201756Z AUTO 00000KT 10SM CLR 25/08 A3023 RMK AO2 SLP232 T02500078 10256 20100 58020
KIGX 201656Z AUTO 04006KT 10SM CLR 24/08 A3026 RMK AO2 SLP243 T02440078
KIGX 201556Z AUTO 08007KT 10SM CLR 23/07 A3028 RMK AO2 SLP251 T02330072
KIGX 201456Z AUTO VRB03KT 10SM CLR 22/08 A3029 RMK AO2 SLP253 T02220078 51011
KIGX 201356Z AUTO 33007KT 10SM CLR 19/08 A3029 RMK AO2 SLP253 T01940078
KIGX 201256Z AUTO 28004KT 10SM CLR 14/08 A3028 RMK AO2 SLP251 T01390078
KIGX 201156Z AUTO 28007KT 10SM CLR 10/07 A3026 RMK AO2 SLP243 T01000072 10100 20072 51014
KIGX 201056Z AUTO 00000KT 10SM CLR 07/06 A3024 RMK AO2 SLP240 T00720061
KIGX 200956Z AUTO 00000KT 10SM CLR 08/07 A3023 RMK AO2 SLP233 T00780067
KIGX 200856Z AUTO 27003KT 10SM CLR 08/07 A3021 RMK AO2 SLP228 T00830067 55003
KIGX 200756Z AUTO 26003KT 10SM CLR 08/07 A3021 RMK AO2 SLP225 T00830067
KIGX 200656Z AUTO 00000KT 10SM CLR 09/07 A3022 RMK AO2 SLP229 T00890067
KIGX 200556Z AUTO 28003KT 10SM CLR 09/07 A3022 RMK AO2 SLP231 T00890072 10139 20089 55003
KIGX 200456Z AUTO 00000KT 10SM CLR 10/07 A3022 RMK AO2 SLP231 T01000072 402440039
KIGX 200356Z AUTO 00000KT 10SM CLR 10/07 A3023 RMK AO2 SLP233 T01000072
KIGX 200256Z AUTO 26003KT 10SM CLR 11/07 A3023 RMK AO2 SLP234 T01060072 51005
KIGX 200156Z AUTO 00000KT 10SM CLR 12/08 A3023 RMK AO2 SLP235 T01170078
KIGX 200056Z AUTO 00000KT 10SM CLR 12/07 A3023 RMK AO2 SLP235 T01220067
KIGX 192356Z AUTO 00000KT 10SM CLR 14/06 A3022 RMK AO2 SLP231 T01390061 10244 20139 53003
KIGX 192256Z AUTO 00000KT 10SM CLR 16/05 A3021 RMK AO2 SLP229 T01610050
KIGX 192156Z AUTO 27003KT 10SM CLR 21/03 A3021 RMK AO2 SLP226 T02060033
KIGX 192056Z AUTO 29005KT 10SM CLR 24/02 A3021 RMK AO2 SLP226 T02390022 57015
KIGX 191956Z AUTO 29006KT 10SM CLR 24/03 A3022 RMK AO2 SLP232 T02390033
KIGX 191856Z AUTO VRB06KT 10SM CLR 23/05 A3023 RMK AO2 SLP235 T02330050
KIGX 191756Z AUTO VRB03KT 10SM CLR 22/06 A3025 RMK AO2 SLP241 T02220061 10228 20050 58027
KIGX 191656Z AUTO VRB05KT 10SM CLR 22/08 A3028 RMK AO2 SLP251 T02170078
KIGX 191556Z AUTO 05003KT 10SM CLR 20/08 A3032 RMK AO2 SLP263 T02000083
KIGX 191456Z AUTO 00000KT 10SM CLR 19/09 A3033 RMK AO2 SLP270 T01890089 50008
KIGX 191356Z AUTO 00000KT 10SM CLR 16/09 A3033 RMK AO2 SLP270 T01560094